Time;durP1;ratioP1;P1;durP2;ratioP2;P2;SDS_P1;SDS_P2;PMS_P1;PMS_P2;Temp;Humidity;BMP_temperature;BMP_pressure;BME280_temperature;BME280_humidity;BME280_pressure;Samples;Min_cycle;Max_cycle;Signal;HPM_P1;HPM_P2
2022/06/18 00:00:58;;;;;;;10.27;4.20;;;;;;;;;;5080973;28;20036;-66
2022/06/18 00:03:25;;;;;;;6.35;3.85;;;;;;;;;;5083070;28;20143;-66
2022/06/18 00:05:53;;;;;;;5.38;4.18;;;;;;;;;;5077522;28;20045;-66
2022/06/18 00:08:22;;;;;;;4.85;3.95;;;;;;;;;;5081847;28;20028;-65
2022/06/18 00:10:53;;;;;;;6.93;4.28;;;;;;;;;;5084370;28;20416;-66
2022/06/18 00:13:39;;;;;;;6.72;4.30;;;;;;;;;;5088757;28;20662;-66
2022/06/18 00:16:05;;;;;;;7.30;4.68;;;;;;;;;;5078393;28;20032;-66
2022/06/18 00:18:31;;;;;;;6.22;4.30;;;;;;;;;;5078711;28;20036;-66
2022/06/18 00:20:59;;;;;;;4.55;4.07;;;;;;;;;;5080730;28;20054;-65
2022/06/18 00:23:24;;;;;;;5.05;4.40;;;;;;;;;;5081423;28;20680;-66
2022/06/18 00:25:52;;;;;;;5.60;4.10;;;;;;;;;;5081090;28;20119;-66
2022/06/18 00:28:20;;;;;;;5.82;4.68;;;;;;;;;;5082694;28;20043;-65
2022/06/18 00:30:46;;;;;;;4.90;4.40;;;;;;;;;;5083208;28;20568;-66
2022/06/18 00:33:12;;;;;;;9.93;4.68;;;;;;;;;;5079904;28;20105;-66
2022/06/18 00:35:37;;;;;;;5.85;4.45;;;;;;;;;;5078081;28;20623;-65
2022/06/18 00:38:04;;;;;;;7.20;4.57;;;;;;;;;;5084496;28;20032;-65
2022/06/18 00:40:39;;;;;;;8.48;4.50;;;;;;;;;;5081558;28;20071;-66
2022/06/18 00:43:30;;;;;;;5.97;4.53;;;;;;;;;;5082168;28;20036;-65
2022/06/18 00:46:02;;;;;;;5.78;4.35;;;;;;;;;;5070400;28;20511;-66
2022/06/18 00:49:01;;;;;;;5.93;4.88;;;;;;;;;;5074260;28;20653;-65
2022/06/18 00:51:43;;;;;;;8.55;4.60;;;;;;;;;;5080990;28;20044;-66
2022/06/18 00:54:18;;;;;;;6.45;4.50;;;;;;;;;;5080327;28;20052;-66
2022/06/18 00:56:51;;;;;;;5.10;4.60;;;;;;;;;;5080815;28;20040;-66
2022/06/18 00:59:27;;;;;;;4.65;4.25;;;;;;;;;;5083030;28;20043;-65
2022/06/18 01:01:54;;;;;;;6.45;4.70;;;;;;;;;;5083960;28;20051;-65
2022/06/18 01:04:24;;;;;;;5.47;4.70;;;;;;;;;;5085495;28;20105;-65
2022/06/18 01:07:12;;;;;;;5.18;4.22;;;;;;;;;;5080670;28;20480;-66
2022/06/18 01:09:37;;;;;;;7.20;4.85;;;;;;;;;;5087898;28;20040;-66
2022/06/18 01:12:03;;;;;;;5.30;4.47;;;;;;;;;;5087258;28;20618;-66
2022/06/18 01:14:30;;;;;;;6.65;4.90;;;;;;;;;;5083135;28;20031;-65
2022/06/18 01:17:00;;;;;;;6.57;4.80;;;;;;;;;;5086763;28;20032;-65
2022/06/18 01:19:43;;;;;;;7.00;5.15;;;;;;;;;;5082459;28;20064;-66
2022/06/18 01:22:33;;;;;;;5.88;5.10;;;;;;;;;;5080102;28;20128;-66
2022/06/18 01:24:59;;;;;;;5.53;5.03;;;;;;;;;;5083420;28;20042;-65
2022/06/18 01:27:25;;;;;;;6.32;5.40;;;;;;;;;;5085887;28;20032;-66
2022/06/18 01:29:50;;;;;;;7.43;5.72;;;;;;;;;;5079567;28;20127;-66
2022/06/18 01:32:17;;;;;;;7.10;5.78;;;;;;;;;;5086407;28;20294;-66
2022/06/18 01:34:43;;;;;;;8.23;6.50;;;;;;;;;;5085889;28;20117;-65
2022/06/18 01:37:09;;;;;;;8.32;6.68;;;;;;;;;;5080634;28;20121;-65
2022/06/18 01:39:39;;;;;;;6.57;5.60;;;;;;;;;;5084618;28;20040;-65
2022/06/18 01:42:11;;;;;;;8.43;5.97;;;;;;;;;;5085519;28;20573;-66
2022/06/18 01:44:37;;;;;;;6.75;5.80;;;;;;;;;;5074399;28;20037;-65
2022/06/18 01:47:19;;;;;;;11.07;6.40;;;;;;;;;;5086747;28;20028;-66
2022/06/18 01:50:01;;;;;;;9.15;6.25;;;;;;;;;;5087624;28;20075;-66
2022/06/18 01:52:33;;;;;;;7.78;6.30;;;;;;;;;;5082497;28;20036;-66
2022/06/18 01:55:02;;;;;;;9.43;7.13;;;;;;;;;;5076248;28;20032;-66
2022/06/18 01:57:32;;;;;;;8.30;6.15;;;;;;;;;;5082134;28;20111;-66
2022/06/18 02:00:07;;;;;;;8.10;6.40;;;;;;;;;;5083987;28;20750;-66
2022/06/18 02:02:32;;;;;;;9.55;7.00;;;;;;;;;;5080624;28;20064;-65
2022/06/18 02:04:57;;;;;;;11.02;6.60;;;;;;;;;;5087395;28;20108;-66
2022/06/18 02:07:23;;;;;;;9.55;6.90;;;;;;;;;;5087019;28;20052;-66
2022/06/18 02:10:21;;;;;;;10.55;7.63;;;;;;;;;;5083264;28;20036;-65
2022/06/18 02:12:47;;;;;;;8.57;7.10;;;;;;;;;;5069540;28;20032;-66
2022/06/18 02:15:29;;;;;;;9.20;7.07;;;;;;;;;;5086268;28;20036;-65
2022/06/18 02:17:58;;;;;;;11.93;7.78;;;;;;;;;;5084060;28;20451;-65
2022/06/18 02:20:27;;;;;;;9.82;7.65;;;;;;;;;;5087413;28;20074;-65
2022/06/18 02:22:56;;;;;;;12.20;8.00;;;;;;;;;;5083985;28;20059;-66
2022/06/18 02:25:25;;;;;;;9.20;7.53;;;;;;;;;;5087509;28;20540;-65
2022/06/18 02:27:56;;;;;;;9.20;7.10;;;;;;;;;;5081930;28;20721;-65
2022/06/18 02:30:24;;;;;;;8.63;6.57;;;;;;;;;;5082254;28;20084;-65
2022/06/18 02:32:54;;;;;;;9.40;7.25;;;;;;;;;;5081035;28;20032;-65
2022/06/18 02:35:19;;;;;;;7.85;6.60;;;;;;;;;;5084347;28;20210;-66
2022/06/18 02:37:45;;;;;;;8.95;6.70;;;;;;;;;;5084857;28;20111;-65
2022/06/18 02:40:17;;;;;;;8.35;6.63;;;;;;;;;;5086675;28;20410;-65
2022/06/18 02:42:43;;;;;;;12.18;6.85;;;;;;;;;;5086981;28;20598;-65
2022/06/18 02:45:08;;;;;;;8.07;6.30;;;;;;;;;;5078516;28;20513;-66
2022/06/18 02:47:34;;;;;;;10.10;6.40;;;;;;;;;;5084048;28;20045;-65
2022/06/18 02:50:05;;;;;;;7.78;6.15;;;;;;;;;;5083729;28;20034;-65
2022/06/18 02:52:37;;;;;;;6.85;5.93;;;;;;;;;;5085271;28;20032;-65
2022/06/18 02:55:12;;;;;;;10.02;6.28;;;;;;;;;;5081270;28;20412;-65
2022/06/18 02:57:38;;;;;;;7.80;6.35;;;;;;;;;;5087104;28;20036;-65
2022/06/18 03:00:08;;;;;;;7.53;6.07;;;;;;;;;;5085364;28;20512;-65
2022/06/18 03:02:33;;;;;;;10.50;6.25;;;;;;;;;;5081575;28;20123;-66
2022/06/18 03:04:59;;;;;;;7.40;5.80;;;;;;;;;;5082559;28;20156;-66
2022/06/18 03:07:24;;;;;;;7.30;5.75;;;;;;;;;;5085332;28;20036;-65
2022/06/18 03:12:33;;;;;;;8.23;6.10;;;;;;;;;;5085501;28;20083;-66
2022/06/18 03:14:59;;;;;;;8.88;6.13;;;;;;;;;;5086130;28;20544;-65
2022/06/18 03:17:24;;;;;;;7.68;5.90;;;;;;;;;;5086303;28;20541;-66
2022/06/18 03:19:56;;;;;;;11.18;6.22;;;;;;;;;;5083372;28;20032;-66
2022/06/18 03:22:21;;;;;;;7.15;5.82;;;;;;;;;;5083962;28;20040;-66
2022/06/18 03:24:47;;;;;;;8.63;6.28;;;;;;;;;;5079055;28;20040;-66
2022/06/18 03:27:14;;;;;;;7.75;5.50;;;;;;;;;;5083749;28;20059;-65
2022/06/18 03:29:40;;;;;;;9.57;6.55;;;;;;;;;;5081841;28;20128;-66
2022/06/18 03:32:06;;;;;;;9.02;5.88;;;;;;;;;;5087114;28;20138;-65
2022/06/18 03:34:32;;;;;;;9.73;5.72;;;;;;;;;;5077410;28;20086;-65
2022/06/18 03:36:57;;;;;;;8.88;5.80;;;;;;;;;;5086408;28;20038;-66
2022/06/18 03:39:23;;;;;;;7.68;5.80;;;;;;;;;;5084995;28;20047;-66
2022/06/18 03:41:49;;;;;;;8.88;6.07;;;;;;;;;;5085483;28;20050;-65
2022/06/18 03:44:15;;;;;;;7.13;6.00;;;;;;;;;;5083818;28;20032;-65
2022/06/18 03:46:43;;;;;;;10.77;6.03;;;;;;;;;;5080772;28;20443;-66
2022/06/18 03:49:14;;;;;;;8.32;5.60;;;;;;;;;;5082427;28;20524;-65
2022/06/18 03:51:39;;;;;;;8.35;5.70;;;;;;;;;;5083374;28;20036;-65
2022/06/18 03:54:05;;;;;;;7.82;5.53;;;;;;;;;;5085154;28;20613;-65
2022/06/18 03:56:32;;;;;;;6.60;5.30;;;;;;;;;;5084392;28;20531;-66
2022/06/18 03:58:58;;;;;;;7.43;5.70;;;;;;;;;;5085337;28;20105;-65
2022/06/18 04:01:27;;;;;;;6.35;5.10;;;;;;;;;;5083662;28;20036;-66
2022/06/18 04:03:52;;;;;;;8.35;5.55;;;;;;;;;;5085830;28;20036;-66
2022/06/18 04:06:18;;;;;;;7.90;5.65;;;;;;;;;;5085139;28;20028;-71
2022/06/18 04:08:44;;;;;;;7.47;5.80;;;;;;;;;;5077620;28;20845;-71
2022/06/18 04:11:11;;;;;;;6.50;5.70;;;;;;;;;;5078774;28;20023;-70
2022/06/18 04:13:36;;;;;;;6.95;5.72;;;;;;;;;;5077246;28;20069;-70
2022/06/18 04:16:01;;;;;;;10.25;5.57;;;;;;;;;;5083861;28;20028;-70
2022/06/18 04:18:28;;;;;;;7.97;5.85;;;;;;;;;;5085688;28;20032;-70
2022/06/18 04:20:54;;;;;;;11.57;5.68;;;;;;;;;;5086045;28;20054;-70
2022/06/18 04:23:19;;;;;;;7.35;5.40;;;;;;;;;;5072720;28;20037;-70
2022/06/18 04:25:45;;;;;;;29.08;7.65;;;;;;;;;;5078444;28;20034;-70
2022/06/18 04:28:11;;;;;;;7.20;5.60;;;;;;;;;;5081598;28;20032;-70
2022/06/18 04:30:37;;;;;;;9.50;5.70;;;;;;;;;;5080737;28;20098;-70
2022/06/18 04:33:03;;;;;;;9.35;5.70;;;;;;;;;;5081919;28;20033;-69
2022/06/18 04:35:28;;;;;;;8.40;5.20;;;;;;;;;;5082611;28;20390;-71
2022/06/18 04:37:54;;;;;;;9.43;5.03;;;;;;;;;;5087747;28;20417;-70
2022/06/18 04:40:31;;;;;;;8.95;5.95;;;;;;;;;;5083283;28;20070;-70
2022/06/18 04:42:59;;;;;;;7.68;5.95;;;;;;;;;;5083260;28;20304;-70
2022/06/18 04:45:24;;;;;;;8.15;5.50;;;;;;;;;;5080954;28;20036;-70
2022/06/18 04:47:50;;;;;;;11.05;5.68;;;;;;;;;;5084844;28;20043;-69
2022/06/18 04:50:23;;;;;;;7.20;5.60;;;;;;;;;;5082522;28;20024;-70
2022/06/18 04:52:48;;;;;;;9.10;5.70;;;;;;;;;;5081025;28;20078;-70
2022/06/18 04:55:13;;;;;;;7.45;5.78;;;;;;;;;;5083959;28;20040;-71
2022/06/18 04:57:39;;;;;;;6.53;5.35;;;;;;;;;;5083325;28;20040;-70
2022/06/18 05:00:07;;;;;;;9.90;6.28;;;;;;;;;;5083474;28;20093;-71
2022/06/18 05:02:34;;;;;;;10.50;6.40;;;;;;;;;;5082856;28;20047;-70
2022/06/18 05:05:00;;;;;;;9.13;6.10;;;;;;;;;;5083046;28;20158;-70
2022/06/18 05:07:25;;;;;;;8.38;6.32;;;;;;;;;;5081744;28;20126;-70
2022/06/18 05:09:50;;;;;;;11.65;6.38;;;;;;;;;;5088585;28;20063;-70
2022/06/18 05:12:16;;;;;;;16.48;7.13;;;;;;;;;;5086628;28;20516;-70
2022/06/18 05:14:42;;;;;;;12.57;6.35;;;;;;;;;;5086754;28;20031;-71
2022/06/18 05:17:36;;;;;;;9.05;6.50;;;;;;;;;;5087295;28;20031;-70
2022/06/18 05:20:03;;;;;;;9.30;6.35;;;;;;;;;;5078632;28;20056;-70
2022/06/18 05:22:29;;;;;;;11.13;6.60;;;;;;;;;;5086733;28;20079;-71
2022/06/18 05:24:54;;;;;;;10.18;6.50;;;;;;;;;;5079788;28;20040;-70
2022/06/18 05:27:25;;;;;;;11.88;6.35;;;;;;;;;;5077207;28;20044;-70
2022/06/18 05:29:50;;;;;;;12.52;6.85;;;;;;;;;;5074232;28;20054;-70
2022/06/18 05:32:16;;;;;;;10.75;6.20;;;;;;;;;;5082301;28;20484;-70
2022/06/18 05:34:41;;;;;;;9.75;6.35;;;;;;;;;;5079649;28;20032;-70
2022/06/18 05:37:14;;;;;;;14.23;7.18;;;;;;;;;;5082770;28;20539;-70
2022/06/18 05:39:40;;;;;;;;;;;;;;;;;;5088597;28;20390;-71
2022/06/18 05:42:05;;;;;;;8.93;5.90;;;;;;;;;;5083594;28;20385;-70
2022/06/18 05:44:31;;;;;;;9.02;5.95;;;;;;;;;;5079646;28;20044;-70
2022/06/18 05:46:56;;;;;;;8.50;6.35;;;;;;;;;;5079085;28;20024;-70
2022/06/18 05:49:21;;;;;;;11.52;6.63;;;;;;;;;;5074871;28;20567;-70
2022/06/18 05:51:47;;;;;;;11.38;6.47;;;;;;;;;;5075498;28;20461;-70
2022/06/18 05:54:12;;;;;;;15.70;6.50;;;;;;;;;;5081648;28;20043;-70
2022/06/18 05:56:37;;;;;;;14.68;6.30;;;;;;;;;;5078440;28;20115;-70
2022/06/18 05:59:03;;;;;;;10.52;6.80;;;;;;;;;;5081608;28;20032;-71
2022/06/18 06:01:28;;;;;;;14.20;6.78;;;;;;;;;;5080260;28;20046;-71
2022/06/18 06:03:53;;;;;;;16.98;6.30;;;;;;;;;;5084445;28;20036;-71
2022/06/18 06:06:19;;;;;;;13.68;6.68;;;;;;;;;;5078941;28;20032;-71
2022/06/18 06:08:44;;;;;;;10.20;6.50;;;;;;;;;;5079033;28;20472;-70
2022/06/18 06:13:53;;;;;;;12.52;6.05;;;;;;;;;;5079842;28;20455;-65
2022/06/18 06:16:20;;;;;;;7.90;5.82;;;;;;;;;;5079221;28;20027;-65
2022/06/18 06:18:46;;;;;;;10.15;6.70;;;;;;;;;;5075287;28;20135;-65
2022/06/18 06:21:11;;;;;;;11.82;6.50;;;;;;;;;;5078169;28;20042;-65
2022/06/18 06:23:37;;;;;;;8.52;6.45;;;;;;;;;;5079476;28;20051;-65
2022/06/18 06:26:02;;;;;;;9.25;5.82;;;;;;;;;;5083385;28;20054;-65
2022/06/18 06:28:29;;;;;;;10.00;6.10;;;;;;;;;;5079796;28;20044;-65
2022/06/18 06:30:56;;;;;;;9.18;6.38;;;;;;;;;;5082959;28;20039;-65
2022/06/18 06:33:22;;;;;;;14.07;6.93;;;;;;;;;;5079162;28;20062;-65
2022/06/18 06:35:48;;;;;;;8.35;6.20;;;;;;;;;;5081235;28;20509;-65
2022/06/18 06:38:15;;;;;;;10.18;6.55;;;;;;;;;;5081325;28;20047;-65
2022/06/18 06:40:42;;;;;;;13.05;7.50;;;;;;;;;;5084507;28;20078;-65
2022/06/18 06:43:11;;;;;;;10.55;7.10;;;;;;;;;;5077762;28;20769;-66
2022/06/18 06:45:36;;;;;;;9.90;6.60;;;;;;;;;;5077197;28;20039;-65
2022/06/18 06:48:02;;;;;;;11.07;6.63;;;;;;;;;;5082104;28;20032;-65
2022/06/18 06:50:28;;;;;;;10.63;6.20;;;;;;;;;;5080499;28;20173;-65
2022/06/18 06:52:55;;;;;;;13.75;6.55;;;;;;;;;;5079525;28;20069;-65
2022/06/18 06:58:13;;;;;;;9.98;6.10;;;;;;;;;;5077650;28;20495;-66
2022/06/18 07:00:43;;;;;;;9.50;6.60;;;;;;;;;;5080866;28;20097;-66
2022/06/18 07:03:16;;;;;;;10.80;6.30;;;;;;;;;;5082640;28;20043;-65
2022/06/18 07:05:43;;;;;;;9.70;6.15;;;;;;;;;;5080176;28;21444;-66
2022/06/18 07:08:09;;;;;;;8.88;5.60;;;;;;;;;;5078569;28;20024;-65
2022/06/18 07:10:35;;;;;;;13.80;6.93;;;;;;;;;;5080455;28;20044;-65
2022/06/18 07:13:00;;;;;;;9.10;6.32;;;;;;;;;;5081308;28;20039;-66
2022/06/18 07:15:26;;;;;;;11.82;6.68;;;;;;;;;;5076321;28;20036;-65
2022/06/18 07:17:51;;;;;;;17.27;8.65;;;;;;;;;;5080334;28;20074;-65
2022/06/18 07:20:19;;;;;;;8.65;6.13;;;;;;;;;;5082587;28;20494;-66
2022/06/18 07:22:45;;;;;;;8.77;6.50;;;;;;;;;;5077126;28;20531;-65
2022/06/18 07:25:12;;;;;;;11.52;6.38;;;;;;;;;;5079246;28;20044;-65
2022/06/18 07:27:37;;;;;;;8.75;6.85;;;;;;;;;;5076647;28;20067;-66
2022/06/18 07:30:05;;;;;;;12.50;6.30;;;;;;;;;;5077760;28;20047;-65
2022/06/18 07:32:31;;;;;;;11.80;7.32;;;;;;;;;;5075248;28;20076;-65
2022/06/18 07:34:57;;;;;;;14.18;7.25;;;;;;;;;;5078193;28;20042;-65
2022/06/18 07:37:23;;;;;;;12.55;6.68;;;;;;;;;;5076067;28;20032;-65
2022/06/18 07:39:49;;;;;;;9.13;6.40;;;;;;;;;;5075125;28;21374;-65
2022/06/18 07:42:18;;;;;;;10.82;6.68;;;;;;;;;;5076427;28;20101;-65
2022/06/18 07:44:44;;;;;;;10.05;6.28;;;;;;;;;;5073020;28;20048;-66
2022/06/18 07:47:13;;;;;;;8.90;6.50;;;;;;;;;;5076380;28;20036;-65
2022/06/18 07:49:39;;;;;;;8.02;6.15;;;;;;;;;;5070996;28;20130;-66
2022/06/18 07:52:04;;;;;;;7.88;5.75;;;;;;;;;;5079073;28;20088;-65
2022/06/18 07:54:29;;;;;;;9.07;5.95;;;;;;;;;;5078091;28;20046;-65
2022/06/18 07:56:55;;;;;;;11.68;6.82;;;;;;;;;;5070494;28;20507;-66
2022/06/18 07:59:20;;;;;;;8.90;6.35;;;;;;;;;;5079374;28;20100;-65
2022/06/18 08:01:46;;;;;;;9.10;6.30;;;;;;;;;;5081735;28;20032;-65
2022/06/18 08:04:11;;;;;;;13.02;6.80;;;;;;;;;;5079997;28;20355;-64
2022/06/18 08:06:36;;;;;;;8.55;6.10;;;;;;;;;;5080238;28;20047;-64
2022/06/18 08:09:02;;;;;;;10.70;6.80;;;;;;;;;;5081536;28;20036;-64
2022/06/18 08:11:29;;;;;;;9.02;6.10;;;;;;;;;;5079074;28;20553;-64
2022/06/18 08:13:56;;;;;;;11.25;6.70;;;;;;;;;;5077931;28;20149;-64
2022/06/18 08:16:21;;;;;;;8.15;5.90;;;;;;;;;;5078581;28;20082;-64
2022/06/18 08:18:47;;;;;;;10.88;6.22;;;;;;;;;;5080774;28;20655;-64
2022/06/18 08:21:35;;;;;;;9.82;6.13;;;;;;;;;;5035612;28;1108861;-64
2022/06/18 08:24:21;;;;;;;11.43;6.75;;;;;;;;;;5078639;28;20047;-64
2022/06/18 08:26:48;;;;;;;9.45;6.75;;;;;;;;;;5079908;28;20529;-65
2022/06/18 08:29:17;;;;;;;12.00;6.53;;;;;;;;;;5077793;28;20032;-64
2022/06/18 08:31:43;;;;;;;11.73;6.57;;;;;;;;;;5084573;28;20466;-64
2022/06/18 08:34:08;;;;;;;15.98;7.25;;;;;;;;;;5077492;28;20536;-65
2022/06/18 08:36:34;;;;;;;9.38;6.60;;;;;;;;;;5076586;28;20032;-64
2022/06/18 08:39:00;;;;;;;11.45;6.90;;;;;;;;;;5076550;28;20032;-65
2022/06/18 08:41:50;;;;;;;10.40;6.32;;;;;;;;;;5075330;28;20035;-64
2022/06/18 08:44:44;;;;;;;12.13;7.03;;;;;;;;;;5075251;28;20028;-65
2022/06/18 08:47:18;;;;;;;;;;;;;;;;;;5072000;28;20028;-65
2022/06/18 08:49:52;;;;;;;8.32;6.70;;;;;;;;;;5073545;28;19923;-64
2022/06/18 08:52:23;;;;;;;9.18;6.95;;;;;;;;;;5074792;28;20055;-64
2022/06/18 08:55:17;;;;;;;11.73;7.43;;;;;;;;;;5078267;28;20468;-64
2022/06/18 08:58:12;;;;;;;8.30;6.63;;;;;;;;;;5072671;28;20039;-64
2022/06/18 09:00:51;;;;;;;14.30;6.88;;;;;;;;;;5076460;28;20521;-64
2022/06/18 09:03:34;;;;;;;9.45;6.93;;;;;;;;;;5073063;28;20532;-64
2022/06/18 09:06:24;;;;;;;15.30;7.67;;;;;;;;;;5075116;28;20063;-64
2022/06/18 09:09:26;;;;;;;8.75;6.32;;;;;;;;;;5077578;28;20758;-65
2022/06/18 09:12:01;;;;;;;11.18;5.93;;;;;;;;;;5077163;28;20078;-65
2022/06/18 09:14:38;;;;;;;10.98;6.00;;;;;;;;;;5076913;28;20058;-65
2022/06/18 09:17:18;;;;;;;8.48;6.03;;;;;;;;;;5078353;28;20040;-65
2022/06/18 09:19:53;;;;;;;9.15;5.55;;;;;;;;;;5077666;28;20409;-65
2022/06/18 09:22:19;;;;;;;9.45;5.82;;;;;;;;;;5080949;28;20040;-65
2022/06/18 09:24:48;;;;;;;13.68;7.20;;;;;;;;;;5084168;28;20039;-65
2022/06/18 09:27:25;;;;;;;9.07;5.53;;;;;;;;;;5087092;28;20040;-65
2022/06/18 09:29:57;;;;;;;10.90;5.90;;;;;;;;;;5081677;28;20104;-65
2022/06/18 09:32:43;;;;;;;14.10;6.68;;;;;;;;;;5085566;28;20024;-65
2022/06/18 09:35:18;;;;;;;10.40;5.60;;;;;;;;;;5070371;28;20063;-65
2022/06/18 09:38:38;;;;;;;8.77;5.50;;;;;;;;;;5089752;28;20047;-65
2022/06/18 09:41:11;;;;;;;14.35;6.10;;;;;;;;;;5052654;28;20582;-65
2022/06/18 09:44:10;;;;;;;10.38;5.78;;;;;;;;;;5083218;28;20048;-65
2022/06/18 09:46:51;;;;;;;11.18;6.20;;;;;;;;;;5089989;28;20514;-65
2022/06/18 09:49:17;;;;;;;28.73;7.85;;;;;;;;;;5079780;28;20513;-65
2022/06/18 09:52:14;;;;;;;7.32;5.85;;;;;;;;;;5080895;28;20051;-66
2022/06/18 09:54:51;;;;;;;10.20;6.22;;;;;;;;;;5080818;28;20047;-65
2022/06/18 09:57:20;;;;;;;8.85;5.60;;;;;;;;;;5081915;28;20130;-65
2022/06/18 09:59:54;;;;;;;9.02;6.55;;;;;;;;;;5083370;28;20062;-65
2022/06/18 10:02:26;;;;;;;6.65;5.95;;;;;;;;;;5080798;28;20039;-65
2022/06/18 10:07:41;;;;;;;10.32;6.35;;;;;;;;;;5080596;28;20420;-65
2022/06/18 10:10:14;;;;;;;9.32;5.70;;;;;;;;;;5083280;28;20135;-65
2022/06/18 10:12:44;;;;;;;8.18;5.40;;;;;;;;;;5083689;28;20032;-65
2022/06/18 10:15:14;;;;;;;11.55;6.10;;;;;;;;;;5084169;28;20566;-65
2022/06/18 10:18:34;;;;;;;6.97;5.28;;;;;;;;;;5082465;28;20047;-65
2022/06/18 10:21:26;;;;;;;6.57;5.38;;;;;;;;;;5010172;28;20195;-66
2022/06/18 10:23:51;;;;;;;7.88;4.97;;;;;;;;;;5073005;28;20646;-66
2022/06/18 10:26:39;;;;;;;8.68;5.07;;;;;;;;;;5074936;28;20024;-65
2022/06/18 10:29:17;;;;;;;7.03;5.05;;;;;;;;;;5076062;28;21291;-65
2022/06/18 10:31:51;;;;;;;7.43;5.30;;;;;;;;;;5077020;28;20459;-65
2022/06/18 10:34:47;;;;;;;7.60;5.50;;;;;;;;;;5079913;28;20520;-65
2022/06/18 10:37:27;;;;;;;8.07;5.10;;;;;;;;;;5077237;28;20028;-65
2022/06/18 10:39:53;;;;;;;5.82;5.15;;;;;;;;;;5088155;28;20039;-66
2022/06/18 10:42:24;;;;;;;6.18;4.93;;;;;;;;;;5089160;28;20032;-65
2022/06/18 10:44:59;;;;;;;11.63;5.38;;;;;;;;;;5084255;28;20032;-65
2022/06/18 10:47:32;;;;;;;7.65;5.07;;;;;;;;;;5076019;28;20054;-65
2022/06/18 10:50:08;;;;;;;7.32;5.22;;;;;;;;;;5077111;28;20024;-65
2022/06/18 10:52:35;;;;;;;7.15;5.00;;;;;;;;;;5079314;28;20036;-65
2022/06/18 10:55:19;;;;;;;7.95;5.03;;;;;;;;;;5076577;28;20032;-66
2022/06/18 10:57:46;;;;;;;12.02;5.20;;;;;;;;;;5079731;28;20561;-65
2022/06/18 11:00:27;;;;;;;8.25;5.18;;;;;;;;;;5083346;28;20035;-65
2022/06/18 11:02:55;;;;;;;6.55;5.13;;;;;;;;;;5078766;28;20070;-66
2022/06/18 11:05:35;;;;;;;9.95;5.38;;;;;;;;;;5079525;28;20024;-65
2022/06/18 11:08:04;;;;;;;7.15;5.35;;;;;;;;;;5078515;28;20077;-65
2022/06/18 11:10:37;;;;;;;8.10;5.30;;;;;;;;;;5081323;28;20044;-65
2022/06/18 11:13:05;;;;;;;7.68;5.32;;;;;;;;;;5078868;28;20023;-65
2022/06/18 11:15:34;;;;;;;7.90;5.22;;;;;;;;;;5080235;28;20040;-66
2022/06/18 11:18:15;;;;;;;6.20;4.70;;;;;;;;;;5080300;28;20040;-65
2022/06/18 11:20:58;;;;;;;6.05;5.25;;;;;;;;;;5083232;28;20032;-66
2022/06/18 11:23:24;;;;;;;14.48;5.90;;;;;;;;;;5078161;28;20085;-66
2022/06/18 11:25:53;;;;;;;7.65;5.20;;;;;;;;;;5084499;28;20504;-66
2022/06/18 11:28:20;;;;;;;6.72;5.32;;;;;;;;;;5085079;28;20044;-65
2022/06/18 11:30:48;;;;;;;5.93;5.32;;;;;;;;;;5080490;28;20032;-66
2022/06/18 11:33:25;;;;;;;9.00;5.50;;;;;;;;;;5082555;28;20040;-65
2022/06/18 11:35:51;;;;;;;8.05;5.28;;;;;;;;;;5078575;28;20131;-65
2022/06/18 11:38:29;;;;;;;10.82;5.78;;;;;;;;;;5078697;28;20818;-65
2022/06/18 11:40:58;;;;;;;17.58;5.60;;;;;;;;;;5080303;28;20085;-65
2022/06/18 11:43:48;;;;;;;8.27;5.65;;;;;;;;;;5078454;28;20033;-65
2022/06/18 11:46:32;;;;;;;6.68;5.28;;;;;;;;;;5080806;28;20037;-66
2022/06/18 11:49:11;;;;;;;8.60;5.20;;;;;;;;;;5079490;28;20036;-65
2022/06/18 11:52:00;;;;;;;9.85;6.13;;;;;;;;;;5080025;28;20115;-65
2022/06/18 11:54:25;;;;;;;7.88;6.10;;;;;;;;;;5079001;28;20044;-65
2022/06/18 11:56:51;;;;;;;7.53;5.05;;;;;;;;;;5081927;28;20038;-66
2022/06/18 11:59:21;;;;;;;7.57;5.32;;;;;;;;;;5076850;28;20024;-66
2022/06/18 12:02:02;;;;;;;9.27;5.32;;;;;;;;;;5084638;28;20026;-65
2022/06/18 12:04:45;;;;;;;9.48;5.13;;;;;;;;;;5078359;28;20139;-65
2022/06/18 12:07:17;;;;;;;5.55;5.05;;;;;;;;;;5066189;28;20052;-66
2022/06/18 12:09:43;;;;;;;10.17;5.10;;;;;;;;;;5071366;28;20048;-65
2022/06/18 12:12:46;;;;;;;6.30;4.60;;;;;;;;;;5070347;28;20270;-65
2022/06/18 12:15:29;;;;;;;8.80;5.00;;;;;;;;;;5077149;28;20032;-65
2022/06/18 12:18:00;;;;;;;7.68;4.60;;;;;;;;;;5075540;28;20044;-65
2022/06/18 12:20:32;;;;;;;8.95;5.32;;;;;;;;;;5077964;28;20051;-65
2022/06/18 12:23:12;;;;;;;7.00;4.43;;;;;;;;;;5081952;28;20047;-66
2022/06/18 12:26:13;;;;;;;10.95;4.93;;;;;;;;;;5084443;28;20044;-66
2022/06/18 12:28:50;;;;;;;6.78;4.50;;;;;;;;;;5044451;28;20044;-65
2022/06/18 12:31:21;;;;;;;8.85;4.55;;;;;;;;;;5075791;28;20178;-65
2022/06/18 12:34:00;;;;;;;6.30;4.20;;;;;;;;;;5078030;28;20040;-65
2022/06/18 12:36:58;;;;;;;6.00;4.32;;;;;;;;;;5079366;28;20048;-65
2022/06/18 12:39:56;;;;;;;7.85;4.70;;;;;;;;;;5079331;28;20124;-65
2022/06/18 12:42:32;;;;;;;6.20;4.50;;;;;;;;;;5078753;28;20516;-65
2022/06/18 12:45:12;;;;;;;8.13;4.30;;;;;;;;;;5075411;28;20044;-65
2022/06/18 12:47:37;;;;;;;9.10;4.07;;;;;;;;;;5071518;28;20080;-65
2022/06/18 12:50:11;;;;;;;7.15;4.20;;;;;;;;;;5074906;28;20190;-66
2022/06/18 12:52:46;;;;;;;7.70;4.03;;;;;;;;;;5079539;28;20075;-65
2022/06/18 12:55:39;;;;;;;9.25;4.43;;;;;;;;;;5079223;28;20036;-65
2022/06/18 12:58:42;;;;;;;9.38;4.30;;;;;;;;;;5076129;28;20040;-65
2022/06/18 13:01:16;;;;;;;8.73;4.30;;;;;;;;;;5084129;28;20048;-65
2022/06/18 13:03:41;;;;;;;7.35;4.60;;;;;;;;;;5076795;28;20181;-66
2022/06/18 13:06:35;;;;;;;6.30;3.90;;;;;;;;;;5077906;28;20122;-65
2022/06/18 13:09:20;;;;;;;7.60;4.22;;;;;;;;;;5075250;28;20036;-66
2022/06/18 13:12:13;;;;;;;8.82;4.30;;;;;;;;;;5075039;28;20154;-65
2022/06/18 13:14:38;;;;;;;9.88;3.88;;;;;;;;;;5074423;28;20045;-65
2022/06/18 13:17:14;;;;;;;8.55;4.28;;;;;;;;;;5079220;28;20083;-65
2022/06/18 13:19:45;;;;;;;7.43;4.05;;;;;;;;;;5076012;28;20057;-66
2022/06/18 13:22:11;;;;;;;9.65;3.97;;;;;;;;;;5078869;28;20083;-66
2022/06/18 13:30:26;;;;;;;9.55;4.20;;;;;;;;;;5085327;28;20047;-66
2022/06/18 13:33:06;;;;;;;9.85;4.43;;;;;;;;;;5080832;28;20036;-67
2022/06/18 13:35:43;;;;;;;9.75;4.65;;;;;;;;;;5081888;28;20147;-67
2022/06/18 13:38:30;;;;;;;8.95;3.80;;;;;;;;;;5080714;28;20032;-66
2022/06/18 13:41:08;;;;;;;6.20;3.88;;;;;;;;;;5082863;28;20037;-66
2022/06/18 13:43:41;;;;;;;8.98;4.13;;;;;;;;;;5082913;28;20127;-67
2022/06/18 13:46:27;;;;;;;7.40;3.60;;;;;;;;;;5077332;28;20040;-66
2022/06/18 13:49:16;;;;;;;5.82;3.75;;;;;;;;;;5084539;28;20093;-66
2022/06/18 13:51:43;;;;;;;7.63;3.92;;;;;;;;;;5083902;28;20116;-66
2022/06/18 13:54:14;;;;;;;9.07;3.85;;;;;;;;;;5079305;28;20459;-66
2022/06/18 13:56:53;;;;;;;8.45;3.72;;;;;;;;;;5082577;28;20409;-66
2022/06/18 13:59:20;;;;;;;7.55;3.40;;;;;;;;;;5083776;28;20036;-66
2022/06/18 14:01:52;;;;;;;7.60;3.35;;;;;;;;;;5085894;28;20482;-66
2022/06/18 14:04:23;;;;;;;10.07;4.00;;;;;;;;;;5084684;28;20043;-66
2022/06/18 14:06:52;;;;;;;8.02;3.90;;;;;;;;;;5082108;28;20036;-66
2022/06/18 14:09:22;;;;;;;9.60;4.57;;;;;;;;;;5084964;28;20513;-66
2022/06/18 14:12:07;;;;;;;8.05;3.60;;;;;;;;;;5080656;28;20036;-66
2022/06/18 14:17:12;;;;;;;11.90;3.83;;;;;;;;;;5078021;28;20124;-66
2022/06/18 14:19:47;;;;;;;7.57;3.45;;;;;;;;;;5079686;28;20335;-66
2022/06/18 14:24:45;;;;;;;7.37;4.27;;;;;;;;;;5081926;28;20040;-66
2022/06/18 14:27:30;;;;;;;7.97;4.05;;;;;;;;;;5077002;28;20693;-66
2022/06/18 14:29:58;;;;;;;8.18;4.28;;;;;;;;;;5082262;28;20032;-66
2022/06/18 14:32:38;;;;;;;9.57;4.07;;;;;;;;;;5080197;28;20024;-66
2022/06/18 14:35:31;;;;;;;8.15;4.40;;;;;;;;;;5079355;28;20060;-67
2022/06/18 14:38:01;;;;;;;6.97;3.85;;;;;;;;;;5079207;28;20072;-67
2022/06/18 14:40:31;;;;;;;5.65;3.70;;;;;;;;;;5083865;28;20131;-66
2022/06/18 14:43:00;;;;;;;10.05;3.67;;;;;;;;;;5081012;28;20032;-67
2022/06/18 14:45:29;;;;;;;8.38;4.22;;;;;;;;;;5079191;28;20052;-66
2022/06/18 14:48:13;;;;;;;8.27;4.18;;;;;;;;;;5081629;28;20062;-67
2022/06/18 14:51:03;;;;;;;10.43;3.90;;;;;;;;;;5086401;28;20568;-66
2022/06/18 14:53:46;;;;;;;11.38;3.75;;;;;;;;;;5082992;28;20024;-67
2022/06/18 14:56:11;;;;;;;12.18;4.30;;;;;;;;;;5078694;28;20050;-67
2022/06/18 14:59:04;;;;;;;6.85;3.63;;;;;;;;;;5076516;28;20028;-67
2022/06/18 15:01:54;;;;;;;;;;;;;;;;;;5084499;28;20089;-67
2022/06/18 15:04:25;;;;;;;14.60;4.13;;;;;;;;;;5079944;28;19931;-66
2022/06/18 15:06:51;;;;;;;12.27;4.13;;;;;;;;;;5081626;28;20038;-66
2022/06/18 15:09:28;;;;;;;11.20;3.70;;;;;;;;;;5083514;28;20024;-66
2022/06/18 15:11:57;;;;;;;8.45;3.72;;;;;;;;;;5074905;28;20670;-66
2022/06/18 15:14:26;;;;;;;9.63;3.80;;;;;;;;;;5083416;28;20727;-66
2022/06/18 15:19:35;;;;;;;9.05;3.75;;;;;;;;;;5077608;28;20036;-66
2022/06/18 15:22:08;;;;;;;12.82;3.97;;;;;;;;;;5083944;28;20055;-66
2022/06/18 15:27:27;;;;;;;12.48;4.40;;;;;;;;;;5082179;28;20035;-66
2022/06/18 15:29:56;;;;;;;19.27;4.22;;;;;;;;;;5081207;28;20558;-66
2022/06/18 15:32:24;;;;;;;16.33;4.28;;;;;;;;;;5079499;28;20687;-66
2022/06/18 15:35:11;;;;;;;14.30;4.40;;;;;;;;;;5080027;28;20055;-66
2022/06/18 15:37:52;;;;;;;13.63;4.20;;;;;;;;;;5081246;28;20032;-66